createdAt,value
2022-09-13T00:01:25.948Z,10.40
2022-09-13T00:03:54.391Z,10.40
2022-09-13T00:06:24.247Z,10.70
2022-09-13T00:08:54.557Z,11.20
2022-09-13T00:11:26.320Z,12.20
2022-09-13T00:13:58.960Z,12.00
2022-09-13T00:16:29.785Z,14.00
2022-09-13T00:19:01.438Z,12.70
2022-09-13T00:21:30.385Z,12.40
2022-09-13T00:23:59.882Z,12.10
2022-09-13T00:26:29.760Z,12.40
2022-09-13T00:28:59.603Z,12.20
2022-09-13T00:31:29.645Z,12.70
2022-09-13T00:34:01.348Z,13.10
2022-09-13T00:36:29.801Z,12.90
2022-09-13T00:39:00.870Z,12.80
2022-09-13T00:41:30.655Z,12.30
2022-09-13T00:44:02.591Z,12.10
2022-09-13T00:46:38.304Z,11.80
2022-09-13T00:49:18.887Z,13.40
2022-09-13T00:52:00.660Z,12.20
2022-09-13T00:54:40.875Z,12.60
2022-09-13T00:57:12.070Z,12.20
2022-09-13T00:59:49.328Z,11.30
2022-09-13T01:02:18.232Z,12.00
2022-09-13T01:04:47.166Z,11.80
2022-09-13T01:07:18.549Z,12.20
2022-09-13T01:09:50.838Z,14.00
2022-09-13T01:12:32.533Z,12.70
2022-09-13T01:15:04.469Z,12.40
2022-09-13T01:17:35.478Z,12.70
2022-09-13T01:20:06.787Z,11.70
2022-09-13T01:22:44.828Z,11.20
2022-09-13T01:25:31.667Z,11.10
2022-09-13T01:28:24.182Z,11.10
2022-09-13T01:31:35.649Z,10.90
2022-09-13T01:34:19.087Z,11.50
2022-09-13T01:37:13.639Z,11.50
2022-09-13T01:40:01.827Z,11.80
2022-09-13T01:42:42.338Z,11.10
2022-09-13T01:45:11.207Z,10.70
2022-09-13T01:47:50.613Z,10.40
2022-09-13T01:50:44.926Z,9.90
2022-09-13T01:53:39.508Z,10.10
2022-09-13T01:56:21.621Z,10.10
2022-09-13T01:59:10.980Z,10.00
2022-09-13T02:01:50.895Z,9.30
2022-09-13T02:04:28.332Z,9.00
2022-09-13T02:07:13.921Z,8.30
2022-09-13T02:09:48.110Z,7.80
2022-09-13T02:12:29.535Z,7.70
2022-09-13T02:15:07.937Z,8.00
2022-09-13T02:17:46.450Z,7.40
2022-09-13T02:20:30.118Z,7.90
2022-09-13T02:23:05.254Z,8.70
2022-09-13T02:25:37.566Z,7.90
2022-09-13T02:28:10.980Z,7.40
2022-09-13T02:30:47.074Z,7.50
2022-09-13T02:36:02.947Z,8.50
2022-09-13T02:38:39.599Z,8.30
2022-09-13T02:41:18.195Z,9.00
2022-09-13T02:43:53.901Z,7.70
2022-09-13T02:46:50.092Z,7.60
2022-09-13T02:49:24.953Z,8.30
2022-09-13T02:52:04.766Z,7.50
2022-09-13T02:54:50.257Z,8.20
2022-09-13T02:57:27.737Z,8.30
2022-09-13T02:59:56.105Z,8.70
2022-09-13T03:02:33.557Z,9.70
2022-09-13T03:05:03.836Z,10.20
2022-09-13T03:07:32.261Z,10.90
2022-09-13T03:10:14.002Z,12.00
2022-09-13T03:13:01.135Z,11.50
2022-09-13T03:15:38.387Z,12.40
2022-09-13T03:18:33.439Z,12.80
2022-09-13T03:21:23.607Z,11.00
2022-09-13T03:24:10.610Z,11.60
2022-09-13T03:26:45.663Z,12.70
2022-09-13T03:29:32.020Z,11.50
2022-09-13T03:32:09.287Z,12.00
2022-09-13T03:35:19.251Z,12.30
2022-09-13T03:38:12.781Z,12.70
2022-09-13T03:40:50.363Z,13.10
2022-09-13T03:43:26.253Z,12.70
2022-09-13T03:46:01.684Z,12.10
2022-09-13T03:48:32.247Z,11.60
2022-09-13T03:51:01.622Z,10.90
2022-09-13T03:53:32.735Z,11.00
2022-09-13T03:56:01.238Z,9.90
2022-09-13T03:58:29.991Z,10.90
2022-09-13T04:00:58.887Z,10.30
2022-09-13T04:03:27.840Z,10.40
2022-09-13T04:05:56.778Z,8.90
2022-09-13T04:08:25.251Z,8.10
2022-09-13T04:10:53.615Z,7.60
2022-09-13T04:13:23.563Z,7.70
2022-09-13T04:15:52.011Z,8.30
2022-09-13T04:18:21.382Z,9.50
2022-09-13T04:20:58.813Z,10.90
2022-09-13T04:23:30.623Z,10.40
2022-09-13T04:26:06.982Z,11.20
2022-09-13T04:28:35.667Z,11.00
2022-09-13T04:31:04.047Z,10.70
2022-09-13T04:33:32.516Z,11.00
2022-09-13T04:36:01.410Z,11.40
2022-09-13T04:38:32.451Z,11.30
2022-09-13T04:41:00.906Z,9.90
2022-09-13T04:43:29.826Z,10.30
2022-09-13T04:46:01.818Z,10.20
2022-09-13T04:48:30.299Z,10.10
2022-09-13T04:51:07.347Z,8.90
2022-09-13T04:53:36.433Z,8.00
2022-09-13T04:56:06.275Z,8.10
2022-09-13T04:58:34.793Z,7.40
2022-09-13T05:01:09.148Z,6.60
2022-09-13T05:03:39.559Z,6.60
2022-09-13T05:06:13.782Z,6.70
2022-09-13T05:08:42.225Z,6.10
2022-09-13T05:11:11.556Z,7.20
2022-09-13T05:13:40.300Z,6.40
2022-09-13T05:16:09.512Z,6.90
2022-09-13T05:18:41.956Z,6.40
2022-09-13T05:21:14.633Z,7.40
2022-09-13T05:23:44.112Z,7.10
2022-09-13T05:26:12.511Z,6.20
2022-09-13T05:28:40.934Z,7.40
2022-09-13T05:31:34.385Z,6.90
2022-09-13T05:34:12.847Z,7.10
2022-09-13T05:36:42.738Z,6.90
2022-09-13T05:39:31.822Z,7.50
2022-09-13T05:42:05.217Z,8.00
2022-09-13T05:44:33.707Z,7.90
2022-09-13T05:47:02.477Z,7.90
2022-09-13T05:49:30.984Z,7.90
2022-09-13T05:51:59.561Z,8.20
2022-09-13T05:54:28.574Z,8.10
2022-09-13T05:56:57.725Z,8.00
2022-09-13T05:59:26.668Z,7.90
2022-09-13T06:01:55.738Z,8.40
2022-09-13T06:04:25.273Z,8.70
2022-09-13T06:06:53.687Z,8.90
2022-09-13T06:09:22.531Z,8.50
2022-09-13T06:11:50.900Z,8.10
2022-09-13T06:14:19.287Z,8.40
2022-09-13T06:16:47.760Z,8.80
2022-09-13T06:19:16.407Z,9.00
2022-09-13T06:21:44.762Z,9.40
2022-09-13T06:24:13.343Z,8.90
2022-09-13T06:26:42.202Z,9.10
2022-09-13T06:29:13.310Z,9.50
2022-09-13T06:31:45.591Z,8.30
2022-09-13T06:34:16.665Z,9.10
2022-09-13T06:36:45.008Z,9.70
2022-09-13T06:39:13.734Z,9.10
2022-09-13T06:41:42.221Z,9.20
2022-09-13T06:44:10.630Z,9.10
2022-09-13T06:46:39.222Z,8.90
2022-09-13T06:49:10.228Z,8.10
2022-09-13T06:51:38.968Z,8.70
2022-09-13T06:54:07.460Z,8.90
2022-09-13T06:56:38.420Z,8.40
2022-09-13T06:59:10.481Z,8.80
2022-09-13T07:01:43.995Z,8.60
2022-09-13T07:04:16.006Z,9.10
2022-09-13T07:06:48.213Z,9.50
2022-09-13T07:09:21.899Z,8.10
2022-09-13T07:11:53.734Z,8.50
2022-09-13T07:14:25.137Z,8.60
2022-09-13T07:16:56.290Z,7.80
2022-09-13T07:19:27.794Z,8.30
2022-09-13T07:21:57.877Z,8.20
2022-09-13T07:24:27.724Z,9.00
2022-09-13T07:26:56.766Z,7.90
2022-09-13T07:29:25.262Z,9.00
2022-09-13T07:31:55.325Z,8.30
2022-09-13T07:34:26.033Z,8.20
2022-09-13T07:36:55.148Z,8.70
2022-09-13T07:39:24.727Z,9.40
2022-09-13T07:41:54.116Z,9.60
2022-09-13T07:44:23.180Z,9.00
2022-09-13T07:46:52.156Z,8.60
2022-09-13T07:49:21.917Z,8.00
2022-09-13T07:51:51.827Z,8.60
2022-09-13T07:54:21.320Z,7.80
2022-09-13T07:56:52.851Z,7.70
2022-09-13T07:59:21.660Z,7.90
2022-09-13T08:01:52.654Z,7.30
2022-09-13T08:04:25.976Z,6.60
2022-09-13T08:06:55.017Z,6.20
2022-09-13T08:09:24.668Z,7.00
2022-09-13T08:11:53.450Z,6.60
2022-09-13T08:14:24.639Z,6.50
2022-09-13T08:16:57.594Z,6.40
2022-09-13T08:19:26.699Z,7.50
2022-09-13T08:21:55.020Z,6.30
2022-09-13T08:24:24.267Z,6.40
2022-09-13T08:26:55.628Z,6.00
2022-09-13T08:29:25.692Z,5.40
2022-09-13T08:31:55.296Z,5.90
2022-09-13T08:34:23.830Z,5.80
2022-09-13T08:36:52.242Z,5.70
2022-09-13T08:39:21.440Z,5.40
2022-09-13T08:42:07.520Z,5.50
2022-09-13T08:44:48.319Z,4.60
2022-09-13T08:47:51.352Z,5.00
2022-09-13T08:50:24.080Z,5.20
2022-09-13T08:53:32.011Z,5.50
2022-09-13T08:56:24.152Z,4.90
2022-09-13T08:58:56.180Z,6.00
2022-09-13T09:01:33.827Z,5.40
2022-09-13T09:04:20.482Z,5.00
2022-09-13T09:06:49.908Z,4.80
2022-09-13T09:09:22.507Z,5.20
2022-09-13T09:11:59.831Z,5.00
2022-09-13T09:14:36.487Z,4.90
2022-09-13T09:17:14.863Z,5.60
2022-09-13T09:19:55.894Z,5.20
2022-09-13T09:22:33.051Z,4.90
2022-09-13T09:25:02.457Z,5.60
2022-09-13T09:27:32.681Z,5.50
2022-09-13T09:30:02.266Z,4.90
2022-09-13T09:33:21.017Z,4.90
2022-09-13T09:35:57.447Z,5.40
2022-09-13T09:38:41.914Z,5.10
2022-09-13T09:41:14.080Z,5.50
2022-09-13T09:43:53.238Z,5.60
2022-09-13T09:46:29.181Z,5.90
2022-09-13T09:49:27.863Z,6.30
2022-09-13T09:51:58.455Z,6.20
2022-09-13T09:54:30.292Z,6.30
2022-09-13T09:56:58.792Z,6.70
2022-09-13T09:59:32.827Z,6.20
2022-09-13T10:02:14.896Z,5.10
2022-09-13T10:04:54.062Z,5.60
2022-09-13T10:07:36.199Z,5.30
2022-09-13T10:10:31.279Z,5.60
2022-09-13T10:13:01.262Z,5.40
2022-09-13T10:15:34.890Z,5.50
2022-09-13T10:18:03.775Z,6.50
2022-09-13T10:20:34.288Z,6.70
2022-09-13T10:23:14.968Z,5.60
2022-09-13T10:25:57.783Z,6.10
2022-09-13T10:28:27.429Z,5.90
2022-09-13T10:31:01.019Z,5.80
2022-09-13T10:33:39.908Z,6.30
2022-09-13T10:39:23.307Z,6.20
2022-09-13T10:42:08.722Z,5.20
2022-09-13T10:44:58.270Z,5.40
2022-09-13T10:47:48.869Z,6.20
2022-09-13T10:50:29.700Z,5.80
2022-09-13T10:53:00.988Z,5.50
2022-09-13T10:55:44.107Z,6.00
2022-09-13T10:58:16.940Z,5.00
2022-09-13T11:01:13.258Z,4.90
2022-09-13T11:03:53.359Z,5.30
2022-09-13T11:06:48.759Z,5.10
2022-09-13T11:12:20.625Z,5.30
2022-09-13T11:15:03.251Z,6.00
2022-09-13T11:17:53.242Z,5.20
2022-09-13T11:20:51.240Z,5.10
2022-09-13T11:23:39.306Z,5.10
2022-09-13T11:26:38.290Z,6.10
2022-09-13T11:29:23.253Z,5.60
2022-09-13T11:32:04.222Z,5.50
2022-09-13T11:34:33.781Z,5.20
2022-09-13T11:37:26.422Z,5.50
2022-09-13T11:40:10.873Z,5.50
2022-09-13T11:42:51.142Z,5.40
2022-09-13T11:45:42.308Z,5.60
2022-09-13T11:48:27.781Z,5.00
2022-09-13T11:51:10.262Z,5.60
2022-09-13T11:53:56.712Z,5.70
2022-09-13T11:56:36.277Z,5.70
2022-09-13T11:59:19.837Z,5.30
2022-09-13T12:02:01.425Z,5.90
2022-09-13T12:04:40.353Z,5.30
2022-09-13T12:07:19.729Z,5.60
2022-09-13T12:10:06.571Z,6.30
2022-09-13T12:12:37.688Z,6.20
2022-09-13T12:15:17.337Z,6.80
2022-09-13T12:18:00.637Z,6.50
2022-09-13T12:20:40.352Z,6.80
2022-09-13T12:23:19.701Z,7.00
2022-09-13T12:26:06.360Z,6.70
2022-09-13T12:28:44.378Z,5.90
2022-09-13T12:31:22.582Z,6.50
2022-09-13T12:33:51.357Z,5.90
2022-09-13T12:36:35.209Z,6.40
2022-09-13T12:39:25.227Z,6.10
2022-09-13T12:42:18.976Z,6.30
2022-09-13T12:45:13.745Z,6.20
2022-09-13T12:48:08.044Z,7.50
2022-09-13T12:51:01.090Z,7.30
2022-09-13T12:54:07.996Z,7.00
2022-09-13T12:57:03.651Z,6.60
2022-09-13T12:59:43.180Z,6.30
2022-09-13T13:02:43.200Z,6.50
2022-09-13T13:05:31.406Z,5.80
2022-09-13T13:08:23.781Z,5.90
2022-09-13T13:11:12.499Z,6.30
2022-09-13T13:13:53.973Z,5.70
2022-09-13T13:16:25.184Z,5.10
2022-09-13T13:18:56.050Z,5.30
2022-09-13T13:21:31.021Z,5.70
2022-09-13T13:24:17.618Z,5.60
2022-09-13T13:26:58.032Z,6.00
2022-09-13T13:29:33.987Z,5.90
2022-09-13T13:32:05.276Z,5.70
2022-09-13T13:34:47.890Z,6.00
2022-09-13T13:37:19.040Z,6.20
2022-09-13T13:39:50.108Z,6.00
2022-09-13T13:42:38.768Z,5.60
2022-09-13T13:45:28.635Z,5.30
2022-09-13T13:48:16.083Z,6.10
2022-09-13T13:51:11.188Z,5.60
2022-09-13T13:53:43.037Z,5.40
2022-09-13T13:56:20.250Z,5.40
2022-09-13T13:59:07.023Z,5.20
2022-09-13T14:01:39.910Z,5.70
2022-09-13T14:04:47.616Z,6.00
2022-09-13T14:07:46.727Z,5.80
2022-09-13T14:10:27.214Z,5.50
2022-09-13T14:13:07.910Z,5.60
2022-09-13T14:16:08.758Z,4.80
2022-09-13T14:18:59.177Z,4.90
2022-09-13T14:21:31.288Z,5.30
2022-09-13T14:24:19.406Z,5.30
2022-09-13T14:26:52.370Z,5.60
2022-09-13T14:29:26.030Z,5.70
2022-09-13T14:32:05.031Z,5.60
2022-09-13T14:34:39.618Z,4.80
2022-09-13T14:37:19.215Z,5.20
2022-09-13T14:40:19.539Z,6.20
2022-09-13T14:42:54.096Z,5.20
2022-09-13T14:45:31.716Z,5.10
2022-09-13T14:48:04.679Z,5.10
2022-09-13T14:50:47.928Z,5.30
2022-09-13T14:53:21.780Z,5.50
2022-09-13T14:55:56.010Z,5.60
2022-09-13T14:58:29.568Z,4.90
2022-09-13T15:01:07.319Z,6.10
2022-09-13T15:03:37.175Z,5.40
2022-09-13T15:06:05.873Z,6.10
2022-09-13T15:08:35.069Z,5.60
2022-09-13T15:11:13.210Z,6.20
2022-09-13T15:13:43.388Z,6.10
2022-09-13T15:16:32.556Z,6.20
2022-09-13T15:19:41.478Z,6.20
2022-09-13T15:22:15.746Z,6.60
2022-09-13T15:24:47.644Z,6.50
2022-09-13T15:27:31.037Z,7.30
2022-09-13T15:30:04.454Z,6.60
2022-09-13T15:32:40.781Z,7.50
2022-09-13T15:35:30.686Z,6.70
2022-09-13T15:38:02.204Z,6.40
2022-09-13T15:40:43.519Z,6.20
2022-09-13T15:43:11.853Z,5.90
2022-09-13T15:45:40.181Z,6.20
2022-09-13T15:48:20.903Z,7.50
2022-09-13T15:51:13.736Z,8.30
2022-09-13T15:53:44.639Z,8.40
2022-09-13T15:56:18.142Z,8.10
2022-09-13T15:58:47.935Z,7.90
2022-09-13T16:01:18.650Z,7.90
2022-09-13T16:03:48.771Z,8.20
2022-09-13T16:06:19.545Z,8.40
2022-09-13T16:08:50.271Z,7.70
2022-09-13T16:11:18.817Z,9.10
2022-09-13T16:13:47.157Z,8.80
2022-09-13T16:16:15.705Z,8.70
2022-09-13T16:18:44.187Z,9.00
2022-09-13T16:21:12.637Z,8.50
2022-09-13T16:23:41.501Z,8.40
2022-09-13T16:26:11.288Z,8.90
2022-09-13T16:28:39.708Z,9.40
2022-09-13T16:31:08.645Z,9.50
2022-09-13T16:33:37.227Z,8.20
2022-09-13T16:36:05.819Z,9.00
2022-09-13T16:38:34.241Z,9.20
2022-09-13T16:41:05.910Z,9.40
2022-09-13T16:43:35.140Z,8.80
2022-09-13T16:46:13.968Z,8.80
2022-09-13T16:48:42.521Z,8.90
2022-09-13T16:51:13.482Z,9.20
2022-09-13T16:53:43.530Z,9.10
2022-09-13T16:56:15.740Z,9.30
2022-09-13T16:58:49.825Z,9.50
2022-09-13T17:01:24.552Z,11.50
2022-09-13T17:03:54.939Z,10.30
2022-09-13T17:06:26.108Z,9.20
2022-09-13T17:09:03.477Z,9.60
2022-09-13T17:11:35.845Z,11.80
2022-09-13T17:14:07.516Z,15.40
2022-09-13T17:16:40.212Z,17.00
2022-09-13T17:19:14.928Z,17.00
2022-09-13T17:21:43.249Z,11.80
2022-09-13T17:24:13.658Z,11.00
2022-09-13T17:26:44.470Z,11.10
2022-09-13T17:29:14.125Z,17.60
2022-09-13T17:31:43.671Z,13.90
2022-09-13T17:34:14.525Z,13.60
2022-09-13T17:36:43.174Z,11.80
2022-09-13T17:39:12.264Z,11.10
2022-09-13T17:41:41.147Z,10.80
2022-09-13T17:44:12.591Z,11.30
2022-09-13T17:46:41.148Z,12.00
2022-09-13T17:49:09.762Z,11.10
2022-09-13T17:51:39.137Z,12.80
2022-09-13T17:54:10.635Z,12.00
2022-09-13T17:56:45.445Z,11.80
2022-09-13T17:59:20.610Z,12.20
2022-09-13T18:01:53.403Z,11.90
2022-09-13T18:04:23.992Z,14.00
2022-09-13T18:06:54.121Z,15.30
2022-09-13T18:09:23.529Z,14.90
2022-09-13T18:11:52.228Z,15.40
2022-09-13T18:14:20.735Z,13.40
2022-09-13T18:16:55.840Z,13.10
2022-09-13T18:19:44.266Z,19.60
2022-09-13T18:22:13.296Z,16.40
2022-09-13T18:24:42.395Z,34.00
2022-09-13T18:27:10.963Z,22.50
2022-09-13T18:29:39.397Z,17.70
2022-09-13T18:32:08.408Z,15.30
2022-09-13T18:34:36.936Z,13.60
2022-09-13T18:37:05.457Z,12.70
2022-09-13T18:39:34.038Z,12.60
2022-09-13T18:42:03.098Z,12.40
2022-09-13T18:44:34.125Z,12.50
2022-09-13T18:47:04.287Z,13.00
2022-09-13T18:49:35.471Z,12.60
2022-09-13T18:52:04.176Z,13.00
2022-09-13T18:54:32.941Z,12.10
2022-09-13T18:57:01.365Z,12.00
2022-09-13T18:59:32.538Z,12.20
2022-09-13T19:02:01.309Z,11.40
2022-09-13T19:04:32.128Z,12.60
2022-09-13T19:07:02.837Z,13.70
2022-09-13T19:09:31.198Z,12.60
2022-09-13T19:11:59.764Z,13.00
2022-09-13T19:14:29.652Z,14.10
2022-09-13T19:17:04.934Z,14.10
2022-09-13T19:19:36.032Z,10.70
2022-09-13T19:22:05.369Z,14.00
2022-09-13T19:24:37.560Z,14.00
2022-09-13T19:27:06.059Z,15.50
2022-09-13T19:29:34.554Z,17.10
2022-09-13T19:32:03.277Z,19.80
2022-09-13T19:34:31.741Z,18.00
2022-09-13T19:37:00.218Z,19.30
2022-09-13T19:39:30.294Z,19.70
2022-09-13T19:42:01.339Z,20.20
2022-09-13T19:44:30.221Z,18.50
2022-09-13T19:47:45.060Z,16.90
2022-09-13T19:49:51.399Z,16.60
2022-09-13T19:52:21.267Z,16.70
2022-09-13T19:54:50.838Z,19.10
2022-09-13T19:57:19.318Z,19.90
2022-09-13T19:59:47.806Z,18.80
2022-09-13T20:02:16.780Z,17.50
2022-09-13T20:04:48.700Z,15.50
2022-09-13T20:07:17.264Z,14.10
2022-09-13T20:09:47.568Z,15.20
2022-09-13T20:12:16.167Z,15.20
2022-09-13T20:14:48.539Z,13.70
2022-09-13T20:17:17.221Z,12.50
2022-09-13T20:19:50.193Z,13.10
2022-09-13T20:22:20.128Z,14.90
2022-09-13T20:24:51.606Z,15.70
2022-09-13T20:27:20.097Z,14.30
2022-09-13T20:29:49.118Z,14.40
2022-09-13T20:32:19.098Z,15.20
2022-09-13T20:34:50.510Z,13.70
2022-09-13T20:37:19.500Z,13.80
2022-09-13T20:39:49.217Z,14.30
2022-09-13T20:42:18.251Z,14.30
2022-09-13T20:44:46.696Z,14.40
2022-09-13T20:47:15.125Z,14.10
2022-09-13T20:49:43.440Z,13.50
2022-09-13T20:52:13.648Z,13.60
2022-09-13T20:54:41.974Z,12.70
2022-09-13T20:57:11.098Z,12.70
2022-09-13T20:59:40.472Z,11.90
2022-09-13T21:02:10.179Z,11.50
2022-09-13T21:04:38.752Z,12.20
2022-09-13T21:07:26.297Z,11.90
2022-09-13T21:09:54.667Z,11.70
2022-09-13T21:12:24.410Z,12.00
2022-09-13T21:14:52.875Z,12.50
2022-09-13T21:17:22.606Z,13.90
2022-09-13T21:19:51.099Z,12.40
2022-09-13T21:22:21.509Z,12.30
2022-09-13T21:24:50.341Z,12.40
2022-09-13T21:27:19.286Z,12.20
2022-09-13T21:29:48.188Z,11.60
2022-09-13T21:32:16.687Z,11.80
2022-09-13T21:34:45.976Z,12.10
2022-09-13T21:37:14.430Z,11.70
2022-09-13T21:39:42.884Z,12.70
2022-09-13T21:42:11.453Z,11.70
2022-09-13T21:44:39.990Z,12.30
2022-09-13T21:47:08.364Z,12.20
2022-09-13T21:49:36.887Z,11.90
2022-09-13T21:52:05.427Z,12.10
2022-09-13T21:54:34.301Z,13.70
2022-09-13T21:57:02.711Z,13.10
2022-09-13T21:59:31.127Z,12.00
2022-09-13T22:02:00.295Z,11.20
2022-09-13T22:04:28.789Z,12.10
2022-09-13T22:06:57.433Z,12.40
2022-09-13T22:09:27.538Z,11.70
2022-09-13T22:11:57.068Z,12.00
2022-09-13T22:14:28.002Z,21.80
2022-09-13T22:17:01.909Z,21.20
2022-09-13T22:19:31.833Z,15.10
2022-09-13T22:22:00.713Z,13.40
2022-09-13T22:24:32.346Z,12.70
2022-09-13T22:27:01.371Z,13.20
2022-09-13T22:29:30.470Z,12.80
2022-09-13T22:31:58.893Z,13.80
2022-09-13T22:34:31.237Z,12.90
2022-09-13T22:37:00.502Z,12.50
2022-09-13T22:39:29.069Z,14.50
2022-09-13T22:41:57.627Z,13.30
2022-09-13T22:44:26.116Z,14.30
2022-09-13T22:46:54.876Z,13.80
2022-09-13T22:49:23.272Z,14.60
2022-09-13T22:51:51.991Z,13.70
2022-09-13T22:54:20.366Z,16.00
2022-09-13T22:56:49.128Z,16.60
2022-09-13T22:59:21.342Z,16.00
2022-09-13T23:01:50.920Z,15.10
2022-09-13T23:04:19.350Z,15.30
2022-09-13T23:06:48.220Z,15.40
2022-09-13T23:09:19.131Z,15.30
2022-09-13T23:11:47.948Z,13.80
2022-09-13T23:14:20.432Z,14.50
2022-09-13T23:16:52.193Z,15.20
2022-09-13T23:19:23.279Z,15.10
2022-09-13T23:21:53.830Z,13.70
2022-09-13T23:24:24.740Z,13.30
2022-09-13T23:26:56.631Z,14.10
2022-09-13T23:29:25.888Z,14.60
2022-09-13T23:31:54.943Z,14.40
2022-09-13T23:34:23.936Z,14.10
2022-09-13T23:36:52.983Z,12.80
2022-09-13T23:39:22.120Z,13.30
2022-09-13T23:41:52.130Z,13.40
2022-09-13T23:44:20.908Z,14.20
2022-09-13T23:46:50.129Z,13.40
2022-09-13T23:49:18.450Z,13.20
2022-09-13T23:51:46.948Z,13.10
2022-09-13T23:54:16.108Z,13.50
2022-09-13T23:56:44.645Z,13.60
2022-09-13T23:59:14.143Z,14.20
